createdAt,value
2016-06-19T00:00:23.542Z,0
2016-06-19T00:01:23.546Z,0
2016-06-19T00:02:23.549Z,0
2016-06-19T00:03:22.944Z,0
2016-06-19T00:04:22.947Z,0
2016-06-19T00:05:24.185Z,0
2016-06-19T00:06:22.954Z,0
2016-06-19T00:07:24.958Z,0
2016-06-19T00:08:23.602Z,0
2016-06-19T00:09:24.136Z,0
2016-06-19T00:10:23.610Z,0
2016-06-19T00:11:23.002Z,0
2016-06-19T00:12:23.616Z,0
2016-06-19T00:13:23.620Z,0
2016-06-19T00:14:24.248Z,0
2016-06-19T00:15:23.627Z,0
2016-06-19T00:16:23.020Z,0
2016-06-19T00:17:24.273Z,0
2016-06-19T00:18:24.918Z,0
2016-06-19T00:19:23.030Z,0
2016-06-19T00:20:24.894Z,0
2016-06-19T00:21:24.288Z,0
2016-06-19T00:22:24.291Z,0
2016-06-19T00:23:23.044Z,0
2016-06-19T00:24:23.063Z,0
2016-06-19T00:25:23.067Z,0
2016-06-19T00:26:23.696Z,0
2016-06-19T00:27:24.324Z,0
2016-06-19T00:28:23.765Z,0
2016-06-19T00:29:24.939Z,0
2016-06-19T00:30:24.334Z,0
2016-06-19T00:31:24.025Z,0
2016-06-19T00:32:23.122Z,0
2016-06-19T00:33:23.110Z,0
2016-06-19T00:34:23.738Z,0
2016-06-19T00:35:23.742Z,0
2016-06-19T00:36:24.370Z,0
2016-06-19T00:37:23.749Z,0
2016-06-19T00:38:23.159Z,0
2016-06-19T00:39:23.771Z,0
2016-06-19T00:40:24.947Z,0
2016-06-19T00:41:24.403Z,0
2016-06-19T00:42:23.423Z,0
2016-06-19T00:43:23.880Z,0
2016-06-19T00:44:24.758Z,0
2016-06-19T00:45:23.840Z,0
2016-06-19T00:46:23.827Z,0
2016-06-19T00:47:23.815Z,0
2016-06-19T00:48:24.505Z,0
2016-06-19T00:49:23.212Z,0
2016-06-19T00:50:23.841Z,0
2016-06-19T00:51:25.626Z,0
2016-06-19T00:52:24.473Z,0
2016-06-19T00:53:23.851Z,0
2016-06-19T00:54:24.479Z,0
2016-06-19T00:55:25.170Z,0
2016-06-19T00:56:23.252Z,0
2016-06-19T00:57:23.881Z,0
2016-06-19T00:58:23.275Z,0
2016-06-19T00:59:23.279Z,0
2016-06-19T01:00:24.532Z,0
2016-06-19T01:01:24.536Z,0
2016-06-19T01:02:23.289Z,0
2016-06-19T01:03:23.902Z,0
2016-06-19T01:04:23.311Z,0
2016-06-19T01:05:23.314Z,0
2016-06-19T01:06:24.568Z,0
2016-06-19T01:07:23.931Z,0
2016-06-19T01:08:23.324Z,0
2016-06-19T01:09:23.328Z,0
2016-06-19T01:10:24.566Z,0
2016-06-19T01:11:23.351Z,0
2016-06-19T01:12:23.355Z,0
2016-06-19T01:13:23.342Z,0
2016-06-19T01:14:23.971Z,0
2016-06-19T01:15:23.990Z,0
2016-06-19T01:16:23.978Z,0
2016-06-19T01:17:24.778Z,0
2016-06-19T01:18:24.001Z,0
2016-06-19T01:19:24.629Z,0
2016-06-19T01:20:24.007Z,0
2016-06-19T01:21:23.401Z,0
2016-06-19T01:22:23.404Z,0
2016-06-19T01:23:23.423Z,0
2016-06-19T01:24:24.021Z,0
2016-06-19T01:25:24.150Z,0
2016-06-19T01:26:25.762Z,0
2016-06-19T01:27:24.047Z,0
2016-06-19T01:28:24.457Z,0
2016-06-19T01:29:24.678Z,0
2016-06-19T01:30:24.120Z,0
2016-06-19T01:31:24.061Z,0
2016-06-19T01:32:23.471Z,0
2016-06-19T01:33:24.083Z,0
2016-06-19T01:34:24.087Z,0
2016-06-19T01:35:24.731Z,0
2016-06-19T01:36:24.735Z,0
2016-06-19T01:37:24.597Z,0
2016-06-19T01:38:23.491Z,0
2016-06-19T01:39:24.448Z,0
2016-06-19T01:40:26.030Z,0
2016-06-19T01:41:25.799Z,0
2016-06-19T01:42:23.520Z,0
2016-06-19T01:43:23.524Z,0
2016-06-19T01:44:23.543Z,0
2016-06-19T01:45:24.156Z,0
2016-06-19T01:46:24.159Z,0
2016-06-19T01:47:24.178Z,0
2016-06-19T01:48:24.166Z,0
2016-06-19T01:49:23.561Z,0
2016-06-19T01:50:23.861Z,0
2016-06-19T01:51:23.567Z,0
2016-06-19T01:52:25.227Z,0
2016-06-19T01:53:24.200Z,0
2016-06-19T01:54:24.844Z,0
2016-06-19T01:55:23.585Z,0
2016-06-19T01:56:24.234Z,0
2016-06-19T01:57:24.241Z,0
2016-06-19T01:58:24.248Z,0
2016-06-19T01:59:24.879Z,0
2016-06-19T02:00:24.884Z,0
2016-06-19T02:01:24.295Z,0
2016-06-19T02:02:23.658Z,0
2016-06-19T02:03:23.695Z,0
2016-06-19T02:04:24.918Z,0
2016-06-19T02:05:24.938Z,0
2016-06-19T02:06:24.317Z,0
2016-06-19T02:07:23.696Z,0
2016-06-19T02:08:24.934Z,0
2016-06-19T02:09:25.563Z,0
2016-06-19T02:10:39.191Z,0
2016-06-19T02:11:24.351Z,0
2016-06-19T02:12:24.354Z,0
2016-06-19T02:13:24.967Z,0
2016-06-19T02:14:25.299Z,0
2016-06-19T02:15:24.365Z,0
2016-06-19T02:16:24.602Z,0
2016-06-19T02:17:24.371Z,0
2016-06-19T02:18:23.766Z,0
2016-06-19T02:19:24.379Z,0
2016-06-19T02:20:23.772Z,0
2016-06-19T02:21:23.776Z,0
2016-06-19T02:22:24.421Z,0
2016-06-19T02:23:24.408Z,0
2016-06-19T02:24:23.786Z,0
2016-06-19T02:25:23.837Z,0
2016-06-19T02:26:24.435Z,0
2016-06-19T02:27:24.469Z,0
2016-06-19T02:28:25.050Z,0
2016-06-19T02:29:24.492Z,0
2016-06-19T02:30:25.073Z,0
2016-06-19T02:31:24.624Z,0
2016-06-19T02:32:24.486Z,0
2016-06-19T02:33:23.849Z,0
2016-06-19T02:34:23.852Z,0
2016-06-19T02:35:25.091Z,0
2016-06-19T02:36:25.766Z,0
2016-06-19T02:37:23.862Z,0
2016-06-19T02:38:24.944Z,0
2016-06-19T02:39:23.869Z,0
2016-06-19T02:40:38.747Z,0
2016-06-19T02:41:23.892Z,0
2016-06-19T02:42:24.505Z,0
2016-06-19T02:43:23.915Z,0
2016-06-19T02:44:23.903Z,0
2016-06-19T02:45:23.922Z,0
2016-06-19T02:46:23.909Z,0
2016-06-19T02:47:25.804Z,0
2016-06-19T02:48:24.558Z,0
2016-06-19T02:49:24.544Z,0
2016-06-19T02:50:23.954Z,0
2016-06-19T02:51:23.974Z,0
2016-06-19T02:52:24.587Z,0
2016-06-19T02:53:24.605Z,0
2016-06-19T02:54:23.999Z,0
2016-06-19T02:55:24.597Z,0
2016-06-19T02:56:24.600Z,0
2016-06-19T02:57:24.603Z,0
2016-06-19T02:58:25.170Z,0
2016-06-19T02:59:25.236Z,0
2016-06-19T03:00:24.630Z,0
2016-06-19T03:01:24.633Z,0
2016-06-19T03:02:25.746Z,0
2016-06-19T03:03:24.640Z,0
2016-06-19T03:04:25.269Z,0
2016-06-19T03:05:24.647Z,0
2016-06-19T03:06:24.651Z,0
2016-06-19T03:07:24.044Z,4
2016-06-19T03:08:25.283Z,4
2016-06-19T03:09:24.989Z,4
2016-06-19T03:10:25.304Z,4
2016-06-19T03:11:24.137Z,4
2016-06-19T03:12:24.061Z,4
2016-06-19T03:13:24.097Z,4
2016-06-19T03:14:24.085Z,4
2016-06-19T03:15:24.088Z,4
2016-06-19T03:16:24.091Z,0
2016-06-19T03:17:24.736Z,0
2016-06-19T03:18:24.115Z,0
2016-06-19T03:19:24.726Z,4
2016-06-19T03:20:24.605Z,4
2016-06-19T03:21:24.750Z,4
2016-06-19T03:22:24.425Z,4
2016-06-19T03:23:24.756Z,4
2016-06-19T03:24:25.791Z,4
2016-06-19T03:25:24.779Z,4
2016-06-19T03:26:25.454Z,4
2016-06-19T03:27:24.926Z,8
2016-06-19T03:28:24.789Z,8
2016-06-19T03:29:24.167Z,4
2016-06-19T03:30:24.234Z,8
2016-06-19T03:31:24.190Z,8
2016-06-19T03:32:24.802Z,8
2016-06-19T03:33:24.244Z,12
2016-06-19T03:34:24.826Z,8
2016-06-19T03:35:25.204Z,8
2016-06-19T03:36:24.848Z,12
2016-06-19T03:37:25.461Z,12
2016-06-19T03:38:26.073Z,12
2016-06-19T03:39:24.859Z,16
2016-06-19T03:40:26.112Z,12
2016-06-19T03:41:24.897Z,16
2016-06-19T03:42:24.853Z,16
2016-06-19T03:43:24.873Z,16
2016-06-19T03:44:26.266Z,20
2016-06-19T03:45:24.316Z,16
2016-06-19T03:46:25.476Z,16
2016-06-19T03:47:24.277Z,16
2016-06-19T03:48:24.904Z,16
2016-06-19T03:49:25.519Z,16
2016-06-19T03:50:24.912Z,16
2016-06-19T03:51:24.306Z,16
2016-06-19T03:52:24.293Z,16
2016-06-19T03:53:24.345Z,16
2016-06-19T03:54:25.551Z,12
2016-06-19T03:55:24.320Z,16
2016-06-19T03:56:24.324Z,16
2016-06-19T03:57:25.342Z,16
2016-06-19T03:58:24.346Z,20
2016-06-19T03:59:26.537Z,20
2016-06-19T04:00:24.353Z,20
2016-06-19T04:01:24.372Z,20
2016-06-19T04:02:25.594Z,20
2016-06-19T04:03:24.363Z,20
2016-06-19T04:04:24.366Z,24
2016-06-19T04:05:24.995Z,28
2016-06-19T04:06:24.998Z,28
2016-06-19T04:07:24.393Z,28
2016-06-19T04:08:25.490Z,28
2016-06-19T04:09:25.025Z,32
2016-06-19T04:10:39.887Z,32
2016-06-19T04:11:24.438Z,36
2016-06-19T04:12:24.428Z,32
2016-06-19T04:13:24.434Z,32
2016-06-19T04:14:24.453Z,36
2016-06-19T04:15:25.052Z,40
2016-06-19T04:16:24.448Z,48
2016-06-19T04:17:25.077Z,48
2016-06-19T04:18:25.082Z,52
2016-06-19T04:19:25.694Z,52
2016-06-19T04:20:25.090Z,56
2016-06-19T04:21:26.141Z,60
2016-06-19T04:22:25.097Z,60
2016-06-19T04:23:25.725Z,64
2016-06-19T04:24:25.119Z,60
2016-06-19T04:25:25.123Z,56
2016-06-19T04:26:25.126Z,56
2016-06-19T04:27:25.161Z,60
2016-06-19T04:28:25.133Z,60
2016-06-19T04:29:24.621Z,68
2016-06-19T04:30:25.781Z,72
2016-06-19T04:31:24.550Z,80
2016-06-19T04:32:24.568Z,84
2016-06-19T04:33:24.650Z,92
2016-06-19T04:34:24.561Z,104
2016-06-19T04:35:24.548Z,120
2016-06-19T04:36:24.567Z,128
2016-06-19T04:37:25.196Z,128
2016-06-19T04:38:25.200Z,116
2016-06-19T04:39:24.592Z,112
2016-06-19T04:40:40.096Z,108
2016-06-19T04:41:24.991Z,108
2016-06-19T04:42:24.603Z,116
2016-06-19T04:43:27.029Z,132
2016-06-19T04:44:25.236Z,144
2016-06-19T04:45:25.613Z,156
2016-06-19T04:46:24.633Z,164
2016-06-19T04:47:25.246Z,164
2016-06-19T04:48:25.874Z,148
2016-06-19T04:49:25.252Z,136
2016-06-19T04:50:24.647Z,128
2016-06-19T04:51:25.900Z,128
2016-06-19T04:52:25.388Z,140
2016-06-19T04:53:25.282Z,148
2016-06-19T04:54:24.675Z,152
2016-06-19T04:55:25.289Z,160
2016-06-19T04:56:25.324Z,152
2016-06-19T04:57:25.921Z,156
2016-06-19T04:58:25.314Z,152
2016-06-19T04:59:25.928Z,164
2016-06-19T05:00:24.712Z,180
2016-06-19T05:01:25.341Z,184
2016-06-19T05:02:25.329Z,180
2016-06-19T05:03:24.723Z,164
2016-06-19T05:04:25.351Z,148
2016-06-19T05:05:26.339Z,136
2016-06-19T05:06:24.733Z,128
2016-06-19T05:07:25.565Z,136
2016-06-19T05:08:25.365Z,148
2016-06-19T05:09:24.759Z,152
2016-06-19T05:10:25.388Z,156
2016-06-19T05:11:25.392Z,164
2016-06-19T05:12:26.004Z,176
2016-06-19T05:13:25.398Z,196
2016-06-19T05:14:26.027Z,216
2016-06-19T05:15:25.436Z,236
2016-06-19T05:16:26.518Z,260
2016-06-19T05:17:24.802Z,280
2016-06-19T05:18:25.572Z,296
2016-06-19T05:19:24.809Z,304
2016-06-19T05:20:24.812Z,320
2016-06-19T05:21:26.082Z,344
2016-06-19T05:22:26.102Z,328
2016-06-19T05:23:24.839Z,344
2016-06-19T05:24:24.843Z,352
2016-06-19T05:25:24.846Z,372
2016-06-19T05:26:25.474Z,360
2016-06-19T05:27:26.556Z,380
2016-06-19T05:28:26.106Z,404
2016-06-19T05:29:25.501Z,436
2016-06-19T05:30:26.738Z,456
2016-06-19T05:31:26.553Z,392
2016-06-19T05:32:25.512Z,344
2016-06-19T05:33:25.560Z,304
2016-06-19T05:34:24.908Z,292
2016-06-19T05:35:25.537Z,280
2016-06-19T05:36:25.525Z,280
2016-06-19T05:37:24.919Z,288
2016-06-19T05:38:26.390Z,296
2016-06-19T05:39:25.550Z,300
2016-06-19T05:40:25.554Z,312
2016-06-19T05:41:25.558Z,324
2016-06-19T05:42:26.373Z,340
2016-06-19T05:43:25.565Z,368
2016-06-19T05:44:26.208Z,404
2016-06-19T05:45:24.962Z,436
2016-06-19T05:46:26.215Z,464
2016-06-19T05:47:24.984Z,484
2016-06-19T05:48:24.988Z,480
2016-06-19T05:49:25.631Z,460
2016-06-19T05:50:25.619Z,424
2016-06-19T05:51:26.233Z,384
2016-06-19T05:52:25.627Z,376
2016-06-19T05:53:26.817Z,404
2016-06-19T05:54:25.025Z,480
2016-06-19T05:55:25.027Z,624
2016-06-19T05:56:25.031Z,772
2016-06-19T05:57:25.644Z,860
2016-06-19T05:58:25.054Z,744
2016-06-19T05:59:25.667Z,792
2016-06-19T06:00:25.044Z,832
2016-06-19T06:01:26.314Z,816
2016-06-19T06:02:25.068Z,900
2016-06-19T06:03:25.727Z,912
2016-06-19T06:04:26.449Z,920
2016-06-19T06:05:25.062Z,876
2016-06-19T06:06:25.721Z,888
2016-06-19T06:07:25.710Z,980
2016-06-19T06:08:26.354Z,1068
2016-06-19T06:09:25.717Z,1156
2016-06-19T06:10:25.720Z,1284
2016-06-19T06:11:25.114Z,1212
2016-06-19T06:12:25.743Z,1120
2016-06-19T06:13:25.528Z,948
2016-06-19T06:14:25.141Z,1040
2016-06-19T06:15:26.863Z,1036
2016-06-19T06:16:25.147Z,1024
2016-06-19T06:17:25.151Z,1320
2016-06-19T06:18:25.154Z,1256
2016-06-19T06:19:25.157Z,1400
2016-06-19T06:20:25.177Z,1384
2016-06-19T06:21:26.414Z,2244
2016-06-19T06:22:25.168Z,1948
2016-06-19T06:23:26.437Z,1692
2016-06-19T06:24:25.394Z,1720
2016-06-19T06:25:25.210Z,3804
2016-06-19T06:26:26.806Z,3740
2016-06-19T06:27:25.216Z,1440
2016-06-19T06:28:25.929Z,1268
2016-06-19T06:29:25.220Z,1072
2016-06-19T06:30:25.870Z,876
2016-06-19T06:31:25.879Z,792
2016-06-19T06:32:25.278Z,668
2016-06-19T06:33:25.268Z,592
2016-06-19T06:34:25.915Z,504
2016-06-19T06:35:26.530Z,444
2016-06-19T06:36:25.302Z,432
2016-06-19T06:37:27.151Z,424
2016-06-19T06:38:25.936Z,476
2016-06-19T06:39:25.941Z,496
2016-06-19T06:40:25.945Z,492
2016-06-19T06:41:25.949Z,496
2016-06-19T06:42:25.344Z,488
2016-06-19T06:43:25.971Z,496
2016-06-19T06:44:26.616Z,492
2016-06-19T06:45:26.619Z,480
2016-06-19T06:46:26.608Z,468
2016-06-19T06:47:25.377Z,468
2016-06-19T06:48:26.646Z,452
2016-06-19T06:49:26.634Z,460
2016-06-19T06:50:25.840Z,468
2016-06-19T06:51:26.015Z,400
2016-06-19T06:52:25.425Z,356
2016-06-19T06:53:26.022Z,348
2016-06-19T06:54:25.417Z,352
2016-06-19T06:55:25.420Z,344
2016-06-19T06:56:25.455Z,328
2016-06-19T06:57:25.427Z,316
2016-06-19T06:58:26.681Z,284
2016-06-19T06:59:27.387Z,284
2016-06-19T07:00:25.453Z,272
2016-06-19T07:01:25.956Z,260
2016-06-19T07:02:25.475Z,268
2016-06-19T07:03:25.479Z,268
2016-06-19T07:04:26.091Z,260
2016-06-19T07:05:26.095Z,252
2016-06-19T07:06:26.723Z,252
2016-06-19T07:07:26.727Z,272
2016-06-19T07:08:26.122Z,272
2016-06-19T07:09:26.124Z,272
2016-06-19T07:10:27.097Z,276
2016-06-19T07:11:25.537Z,272
2016-06-19T07:12:26.338Z,284
2016-06-19T07:13:25.530Z,292
2016-06-19T07:14:25.533Z,296
2016-06-19T07:15:26.161Z,304
2016-06-19T07:16:25.539Z,308
2016-06-19T07:17:25.543Z,316
2016-06-19T07:18:25.562Z,336
2016-06-19T07:19:26.175Z,344
2016-06-19T07:20:25.554Z,368
2016-06-19T07:21:27.292Z,388
2016-06-19T07:22:26.825Z,416
2016-06-19T07:23:26.548Z,428
2016-06-19T07:24:26.207Z,436
2016-06-19T07:25:27.336Z,440
2016-06-19T07:26:26.245Z,460
2016-06-19T07:27:25.609Z,440
2016-06-19T07:28:26.238Z,436
2016-06-19T07:29:26.240Z,424
2016-06-19T07:30:26.884Z,388
2016-06-19T07:31:26.248Z,360
2016-06-19T07:32:26.970Z,324
2016-06-19T07:33:26.270Z,280
2016-06-19T07:34:26.414Z,256
2016-06-19T07:35:25.652Z,232
2016-06-19T07:36:27.484Z,220
2016-06-19T07:37:26.283Z,220
2016-06-19T07:38:26.287Z,216
2016-06-19T07:39:25.681Z,208
2016-06-19T07:40:25.685Z,196
2016-06-19T07:41:26.360Z,188
2016-06-19T07:42:26.317Z,180
2016-06-19T07:43:26.320Z,176
2016-06-19T07:44:26.323Z,168
2016-06-19T07:45:25.718Z,176
2016-06-19T07:46:25.722Z,192
2016-06-19T07:47:27.631Z,220
2016-06-19T07:48:26.354Z,248
2016-06-19T07:49:26.372Z,268
2016-06-19T07:50:26.985Z,252
2016-06-19T07:51:26.363Z,248
2016-06-19T07:52:26.367Z,252
2016-06-19T07:53:26.386Z,256
2016-06-19T07:54:26.389Z,272
2016-06-19T07:55:27.003Z,288
2016-06-19T07:56:25.928Z,308
2016-06-19T07:57:26.400Z,324
2016-06-19T07:58:27.778Z,340
2016-06-19T07:59:26.407Z,348
2016-06-19T08:00:27.051Z,356
2016-06-19T08:01:27.038Z,372
2016-06-19T08:02:26.433Z,404
2016-06-19T08:03:27.061Z,436
2016-06-19T08:04:27.065Z,460
2016-06-19T08:05:25.834Z,492
2016-06-19T08:06:27.088Z,524
2016-06-19T08:07:28.092Z,536
2016-06-19T08:08:27.078Z,564
2016-06-19T08:09:27.270Z,596
2016-06-19T08:10:26.491Z,604
2016-06-19T08:11:27.948Z,624
2016-06-19T08:12:26.498Z,636
2016-06-19T08:13:25.908Z,648
2016-06-19T08:14:25.881Z,636
2016-06-19T08:15:25.884Z,616
2016-06-19T08:16:27.138Z,616
2016-06-19T08:17:27.140Z,612
2016-06-19T08:18:27.566Z,604
2016-06-19T08:19:25.914Z,604
2016-06-19T08:20:26.823Z,624
2016-06-19T08:21:27.171Z,648
2016-06-19T08:22:28.393Z,676
2016-06-19T08:23:27.178Z,716
2016-06-19T08:24:26.571Z,704
2016-06-19T08:25:27.184Z,760
2016-06-19T08:26:25.953Z,816
2016-06-19T08:27:25.956Z,820
2016-06-19T08:28:26.601Z,852
2016-06-19T08:29:26.588Z,892
2016-06-19T08:30:25.983Z,920
2016-06-19T08:31:26.752Z,968
2016-06-19T08:32:27.224Z,1008
2016-06-19T08:33:25.993Z,1052
2016-06-19T08:34:26.044Z,1096
2016-06-19T08:35:26.094Z,1120
2016-06-19T08:36:26.019Z,1232
2016-06-19T08:37:26.648Z,1380
2016-06-19T08:38:26.635Z,1600
2016-06-19T08:39:26.139Z,1644
2016-06-19T08:40:26.659Z,1600
2016-06-19T08:41:26.693Z,1680
2016-06-19T08:42:26.852Z,1600
2016-06-19T08:43:26.668Z,1872
2016-06-19T08:44:26.080Z,2680
2016-06-19T08:45:26.837Z,2720
2016-06-19T08:46:26.718Z,3276
2016-06-19T08:47:26.708Z,3320
2016-06-19T08:48:26.714Z,3352
2016-06-19T08:49:26.735Z,3168
2016-06-19T08:50:26.739Z,3044
2016-06-19T08:51:27.353Z,3140
2016-06-19T08:52:26.748Z,3492
2016-06-19T08:53:26.753Z,3016
2016-06-19T08:54:26.757Z,2792
2016-06-19T08:55:27.698Z,2888
2016-06-19T08:56:26.781Z,2680
2016-06-19T08:57:26.924Z,2312
2016-06-19T08:58:26.164Z,1940
2016-06-19T08:59:26.792Z,1584
2016-06-19T09:00:27.421Z,1548
2016-06-19T09:01:26.814Z,1348
2016-06-19T09:02:27.428Z,1240
2016-06-19T09:03:26.196Z,1244
2016-06-19T09:04:26.199Z,1276
2016-06-19T09:05:26.828Z,1288
2016-06-19T09:06:28.050Z,1240
2016-06-19T09:07:26.226Z,1232
2016-06-19T09:08:26.479Z,1188
2016-06-19T09:09:26.233Z,1052
2016-06-19T09:10:26.251Z,900
2016-06-19T09:11:26.254Z,860
2016-06-19T09:12:26.868Z,920
2016-06-19T09:13:26.886Z,944
2016-06-19T09:14:26.265Z,912
2016-06-19T09:15:27.503Z,844
2016-06-19T09:16:27.522Z,764
2016-06-19T09:17:28.167Z,748
2016-06-19T09:18:26.920Z,760
2016-06-19T09:19:26.908Z,784
2016-06-19T09:20:26.943Z,840
2016-06-19T09:21:26.306Z,900
2016-06-19T09:22:26.308Z,920
2016-06-19T09:23:26.953Z,932
2016-06-19T09:24:26.940Z,964
2016-06-19T09:25:26.944Z,1004
2016-06-19T09:26:27.573Z,1072
2016-06-19T09:27:26.342Z,1136
2016-06-19T09:28:28.283Z,1184
2016-06-19T09:29:26.348Z,1248
2016-06-19T09:30:26.977Z,1204
2016-06-19T09:31:26.996Z,1176
2016-06-19T09:32:26.985Z,1236
2016-06-19T09:33:27.019Z,1300
2016-06-19T09:34:27.007Z,1388
2016-06-19T09:35:27.087Z,1468
2016-06-19T09:36:27.013Z,1488
2016-06-19T09:37:27.079Z,1536
2016-06-19T09:38:26.411Z,1620
2016-06-19T09:39:28.337Z,1696
2016-06-19T09:40:26.417Z,1756
2016-06-19T09:41:26.843Z,1860
2016-06-19T09:42:27.675Z,1944
2016-06-19T09:43:26.444Z,2008
2016-06-19T09:44:27.088Z,2084
2016-06-19T09:45:27.076Z,2180
2016-06-19T09:46:28.361Z,2372
2016-06-19T09:47:27.098Z,2936
2016-06-19T09:48:26.507Z,2932
2016-06-19T09:49:26.480Z,3416
2016-06-19T09:50:27.139Z,3348
2016-06-19T09:51:26.487Z,3484
2016-06-19T09:52:27.741Z,3100
2016-06-19T09:53:27.744Z,3420
2016-06-19T09:54:28.263Z,2864
2016-06-19T09:55:26.517Z,2828
2016-06-19T09:56:26.520Z,2724
2016-06-19T09:57:27.774Z,2904
2016-06-19T09:58:27.777Z,2688
2016-06-19T09:59:27.171Z,2696
2016-06-19T10:00:26.549Z,2252
2016-06-19T10:01:27.912Z,1948
2016-06-19T10:02:27.197Z,1800
2016-06-19T10:03:27.185Z,1700
2016-06-19T10:04:26.579Z,1588
2016-06-19T10:05:27.895Z,1432
2016-06-19T10:06:26.586Z,1320
2016-06-19T10:07:27.230Z,1244
2016-06-19T10:08:27.218Z,1212
2016-06-19T10:09:27.221Z,1260
2016-06-19T10:10:27.241Z,1272
2016-06-19T10:11:26.634Z,1296
2016-06-19T10:12:27.872Z,1272
2016-06-19T10:13:28.485Z,1296
2016-06-19T10:14:27.613Z,1368
2016-06-19T10:15:27.898Z,1432
2016-06-19T10:16:28.245Z,1476
2016-06-19T10:17:27.296Z,1528
2016-06-19T10:18:27.908Z,1572
2016-06-19T10:19:26.678Z,1588
2016-06-19T10:20:27.290Z,1628
2016-06-19T10:21:27.310Z,1644
2016-06-19T10:22:26.688Z,1676
2016-06-19T10:23:26.692Z,1724
2016-06-19T10:24:27.945Z,1744
2016-06-19T10:25:27.057Z,1720
2016-06-19T10:26:26.718Z,1740
2016-06-19T10:27:28.392Z,1776
2016-06-19T10:28:26.725Z,1844
2016-06-19T10:29:26.743Z,1884
2016-06-19T10:30:27.982Z,1852
2016-06-19T10:31:27.376Z,1840
2016-06-19T10:32:27.989Z,2340
2016-06-19T10:33:28.008Z,1972
2016-06-19T10:34:26.761Z,2256
2016-06-19T10:35:27.389Z,2496
2016-06-19T10:36:26.831Z,2324
2016-06-19T10:37:26.834Z,2648
2016-06-19T10:38:28.399Z,2576
2016-06-19T10:39:27.481Z,2628
2016-06-19T10:40:28.047Z,2636
2016-06-19T10:41:27.441Z,2620
2016-06-19T10:42:27.445Z,2580
2016-06-19T10:43:27.464Z,2532
2016-06-19T10:44:27.484Z,2460
2016-06-19T10:45:28.064Z,2432
2016-06-19T10:46:27.537Z,2444
2016-06-19T10:47:27.493Z,2452
2016-06-19T10:48:27.481Z,2440
2016-06-19T10:49:29.235Z,2420
2016-06-19T10:50:27.488Z,2360
2016-06-19T10:51:27.289Z,2372
2016-06-19T10:52:27.494Z,2172
2016-06-19T10:53:26.890Z,2048
2016-06-19T10:54:26.908Z,1840
2016-06-19T10:55:28.146Z,2204
2016-06-19T10:56:26.914Z,2416
2016-06-19T10:57:26.918Z,2372
2016-06-19T10:58:27.547Z,2468
2016-06-19T10:59:27.550Z,1812
2016-06-19T11:00:28.382Z,1756
2016-06-19T11:01:26.950Z,1700
2016-06-19T11:02:27.658Z,1692
2016-06-19T11:03:27.616Z,1620
2016-06-19T11:04:26.981Z,1660
2016-06-19T11:05:27.594Z,1616
2016-06-19T11:06:27.645Z,1672
2016-06-19T11:07:26.993Z,2136
2016-06-19T11:08:27.637Z,1860
2016-06-19T11:09:27.626Z,1456
2016-06-19T11:10:27.630Z,1488
2016-06-19T11:11:28.805Z,1508
2016-06-19T11:12:27.638Z,1636
2016-06-19T11:13:27.391Z,1604
2016-06-19T11:14:27.036Z,1600
2016-06-19T11:15:27.664Z,1540
2016-06-19T11:16:27.683Z,1592
2016-06-19T11:17:27.062Z,2200
2016-06-19T11:18:27.674Z,1632
2016-06-19T11:19:27.694Z,1628
2016-06-19T11:20:27.712Z,2044
2016-06-19T11:21:27.716Z,1844
2016-06-19T11:22:28.282Z,1524
2016-06-19T11:23:27.098Z,1844
2016-06-19T11:24:27.726Z,1564
2016-06-19T11:25:27.729Z,2004
2016-06-19T11:26:27.765Z,1992
2016-06-19T11:27:27.753Z,1948
2016-06-19T11:28:28.381Z,1904
2016-06-19T11:29:27.134Z,1884
2016-06-19T11:30:27.154Z,1924
2016-06-19T11:31:27.157Z,1956
2016-06-19T11:32:27.161Z,2016
2016-06-19T11:33:27.804Z,2028
2016-06-19T11:34:27.182Z,2064
2016-06-19T11:35:27.811Z,2016
2016-06-19T11:36:27.799Z,1992
2016-06-19T11:37:28.928Z,1524
2016-06-19T11:38:27.853Z,1392
2016-06-19T11:39:27.200Z,1464
2016-06-19T11:40:27.203Z,1604
2016-06-19T11:41:27.222Z,1776
2016-06-19T11:42:27.836Z,2032
2016-06-19T11:43:27.230Z,2060
2016-06-19T11:44:27.983Z,2028
2016-06-19T11:45:27.253Z,2000
2016-06-19T11:46:27.896Z,1896
2016-06-19T11:47:27.885Z,1496
2016-06-19T11:48:29.200Z,1220
2016-06-19T11:49:27.875Z,1236
2016-06-19T11:50:27.285Z,1472
2016-06-19T11:51:28.538Z,1804
2016-06-19T11:52:27.901Z,1764
2016-06-19T11:53:27.296Z,1696
2016-06-19T11:54:27.299Z,1616
2016-06-19T11:55:28.569Z,1556
2016-06-19T11:56:27.931Z,1544
2016-06-19T11:57:28.560Z,1532
2016-06-19T11:58:27.937Z,1528
2016-06-19T11:59:29.347Z,1504
2016-06-19T12:00:27.336Z,1500
2016-06-19T12:01:28.589Z,1496
2016-06-19T12:02:27.342Z,1516
2016-06-19T12:03:27.971Z,1552
2016-06-19T12:04:27.365Z,1576
2016-06-19T12:05:27.368Z,1576
2016-06-19T12:06:28.606Z,1592
2016-06-19T12:07:28.000Z,1620
2016-06-19T12:08:28.004Z,1248
2016-06-19T12:09:27.381Z,1272
2016-06-19T12:10:29.057Z,1320
2016-06-19T12:11:27.404Z,1680
2016-06-19T12:12:27.425Z,1748
2016-06-19T12:13:28.037Z,1744
2016-06-19T12:14:27.431Z,1736
2016-06-19T12:15:27.434Z,1708
2016-06-19T12:16:28.047Z,1688
2016-06-19T12:17:28.691Z,1688
2016-06-19T12:18:28.070Z,1696
2016-06-19T12:19:28.088Z,1712
2016-06-19T12:20:27.467Z,1684
2016-06-19T12:21:29.190Z,1624
2016-06-19T12:22:28.130Z,1748
2016-06-19T12:23:27.774Z,1684
2016-06-19T12:24:28.122Z,1684
2016-06-19T12:25:28.125Z,1704
2016-06-19T12:26:28.129Z,1692
2016-06-19T12:27:28.132Z,1692
2016-06-19T12:28:27.526Z,1736
2016-06-19T12:29:28.764Z,1752
2016-06-19T12:30:29.737Z,1804
2016-06-19T12:31:27.536Z,1496
2016-06-19T12:32:29.055Z,1452
2016-06-19T12:33:28.778Z,1424
2016-06-19T12:34:28.187Z,1376
2016-06-19T12:35:28.800Z,1340
2016-06-19T12:36:27.569Z,1292
2016-06-19T12:37:28.197Z,1232
2016-06-19T12:38:27.593Z,1208
2016-06-19T12:39:28.267Z,1192
2016-06-19T12:40:28.271Z,1236
2016-06-19T12:41:27.603Z,1272
2016-06-19T12:42:28.231Z,1292
2016-06-19T12:43:29.032Z,1540
2016-06-19T12:44:28.238Z,1560
2016-06-19T12:45:28.242Z,1512
2016-06-19T12:46:27.634Z,1200
2016-06-19T12:47:27.685Z,1132
2016-06-19T12:48:27.658Z,1116
2016-06-19T12:49:28.911Z,1096
2016-06-19T12:50:28.914Z,1076
2016-06-19T12:51:28.277Z,1064
2016-06-19T12:52:27.671Z,1068
2016-06-19T12:53:28.925Z,1256
2016-06-19T12:54:29.117Z,1152
2016-06-19T12:55:28.323Z,1188
2016-06-19T12:56:28.327Z,1208
2016-06-19T12:57:28.939Z,1228
2016-06-19T12:58:27.709Z,1244
2016-06-19T12:59:28.351Z,1260
2016-06-19T13:00:29.590Z,1260
2016-06-19T13:01:28.953Z,1264
2016-06-19T13:02:27.753Z,1280
2016-06-19T13:03:28.975Z,1300
2016-06-19T13:04:27.744Z,1280
2016-06-19T13:05:28.530Z,1264
2016-06-19T13:06:27.767Z,1260
2016-06-19T13:07:28.379Z,1260
2016-06-19T13:08:27.774Z,1268
2016-06-19T13:09:29.058Z,1284
2016-06-19T13:10:27.797Z,1312
2016-06-19T13:11:28.409Z,1332
2016-06-19T13:12:29.053Z,1324
2016-06-19T13:13:29.041Z,1300
2016-06-19T13:14:28.436Z,1296
2016-06-19T13:15:27.814Z,1304
2016-06-19T13:16:29.005Z,1316
2016-06-19T13:17:27.839Z,1340
2016-06-19T13:18:30.393Z,1352
2016-06-19T13:19:29.088Z,1368
2016-06-19T13:20:29.437Z,1412
2016-06-19T13:21:27.866Z,1432
2016-06-19T13:22:29.120Z,1440
2016-06-19T13:23:29.749Z,1440
2016-06-19T13:24:29.129Z,1452
2016-06-19T13:25:29.150Z,1452
2016-06-19T13:26:29.155Z,1436
2016-06-19T13:27:27.923Z,1404
2016-06-19T13:28:27.912Z,1356
2016-06-19T13:29:29.697Z,1304
2016-06-19T13:30:27.950Z,1300
2016-06-19T13:31:28.907Z,1288
2016-06-19T13:32:28.567Z,1228
2016-06-19T13:33:27.962Z,1152
2016-06-19T13:34:28.575Z,1072
2016-06-19T13:35:28.611Z,1020
2016-06-19T13:36:27.990Z,968
2016-06-19T13:37:27.977Z,908
2016-06-19T13:38:27.997Z,852
2016-06-19T13:39:28.000Z,800
2016-06-19T13:40:29.926Z,760
2016-06-19T13:41:28.022Z,724
2016-06-19T13:42:28.636Z,720
2016-06-19T13:43:28.014Z,760
2016-06-19T13:44:29.720Z,680
2016-06-19T13:45:28.661Z,728
2016-06-19T13:46:28.681Z,804
2016-06-19T13:47:28.668Z,792
2016-06-19T13:48:28.718Z,812
2016-06-19T13:49:28.691Z,800
2016-06-19T13:50:29.303Z,812
2016-06-19T13:51:29.401Z,808
2016-06-19T13:52:29.467Z,788